createdAt,value
2022-12-11T00:00:59.479Z,21.07
2022-12-11T00:03:27.566Z,22.37
2022-12-11T00:05:55.599Z,23.40
2022-12-11T00:08:23.579Z,25.40
2022-12-11T00:10:51.827Z,20.37
2022-12-11T00:13:20.016Z,24.20
2022-12-11T00:15:49.413Z,26.87
2022-12-11T00:18:17.508Z,24.47
2022-12-11T00:20:45.724Z,23.63
2022-12-11T00:23:13.813Z,23.87
2022-12-11T00:25:45.470Z,35.57
2022-12-11T00:28:14.287Z,36.80
2022-12-11T00:30:43.293Z,34.93
2022-12-11T00:33:14.710Z,36.13
2022-12-11T00:35:44.853Z,37.17
2022-12-11T00:38:16.602Z,37.37
2022-12-11T00:40:44.942Z,36.47
2022-12-11T00:43:13.516Z,39.37
2022-12-11T00:45:43.674Z,38.73
2022-12-11T00:48:14.184Z,37.37
2022-12-11T00:50:43.364Z,38.47
2022-12-11T00:53:11.392Z,39.50
2022-12-11T00:55:41.049Z,40.20
2022-12-11T00:58:09.925Z,38.40
2022-12-11T01:00:38.840Z,36.70
2022-12-11T01:03:06.940Z,38.53
2022-12-11T01:05:36.487Z,38.03
2022-12-11T01:08:05.022Z,36.17
2022-12-11T01:10:32.752Z,36.40
2022-12-11T01:13:02.378Z,40.73
2022-12-11T01:15:32.329Z,40.10
2022-12-11T01:18:00.589Z,40.93
2022-12-11T01:20:29.155Z,41.07
2022-12-11T01:23:01.027Z,39.57
2022-12-11T01:25:29.952Z,41.57
2022-12-11T01:27:58.098Z,37.47
2022-12-11T01:30:27.164Z,37.97
2022-12-11T01:32:55.175Z,40.00
2022-12-11T01:35:23.227Z,34.97
2022-12-11T01:37:51.298Z,39.67
2022-12-11T01:40:22.151Z,38.97
2022-12-11T01:42:51.010Z,39.47
2022-12-11T01:45:33.223Z,38.87
2022-12-11T01:48:05.667Z,42.37
2022-12-11T01:50:37.172Z,42.23
2022-12-11T01:53:08.114Z,42.67
2022-12-11T01:55:39.897Z,41.03
2022-12-11T01:58:09.238Z,44.07
2022-12-11T02:00:37.241Z,39.47
2022-12-11T02:03:05.772Z,43.17
2022-12-11T02:05:33.803Z,41.80
2022-12-11T02:08:04.006Z,42.90
2022-12-11T02:10:47.623Z,43.53
2022-12-11T02:13:20.847Z,40.70
2022-12-11T02:15:56.643Z,46.90
2022-12-11T02:18:32.252Z,42.20
2022-12-11T02:21:07.678Z,41.77
2022-12-11T02:24:14.732Z,42.07
2022-12-11T02:27:28.475Z,41.27
2022-12-11T02:30:03.417Z,41.20
2022-12-11T02:32:37.958Z,42.60
2022-12-11T02:35:12.440Z,40.27
2022-12-11T02:37:44.624Z,44.37
2022-12-11T02:40:15.971Z,44.97
2022-12-11T02:42:48.529Z,45.43
2022-12-11T02:45:19.183Z,42.83
2022-12-11T02:47:49.007Z,44.83
2022-12-11T02:50:21.481Z,44.90
2022-12-11T02:52:52.602Z,43.93
2022-12-11T02:55:21.546Z,46.13
2022-12-11T02:57:53.847Z,44.63
2022-12-11T03:00:23.416Z,44.57
2022-12-11T03:02:51.506Z,48.77
2022-12-11T03:05:19.638Z,45.93
2022-12-11T03:07:47.757Z,46.30
2022-12-11T03:10:18.856Z,46.43
2022-12-11T03:12:53.174Z,30.53
2022-12-11T03:15:26.416Z,29.83
2022-12-11T03:18:04.932Z,28.87
2022-12-11T03:20:39.002Z,26.13
2022-12-11T03:23:15.493Z,24.37
2022-12-11T03:25:52.567Z,28.40
2022-12-11T03:28:26.214Z,27.90
2022-12-11T03:30:56.964Z,27.03
2022-12-11T03:33:29.027Z,26.97
2022-12-11T03:36:01.894Z,23.13
2022-12-11T03:38:36.488Z,25.10
2022-12-11T03:41:06.376Z,24.43
2022-12-11T03:43:36.219Z,24.57
2022-12-11T03:46:06.616Z,23.80
2022-12-11T03:48:38.052Z,24.13
2022-12-11T03:51:08.055Z,23.03
2022-12-11T03:53:36.942Z,23.63
2022-12-11T03:56:07.192Z,25.37
2022-12-11T03:58:35.330Z,25.93
2022-12-11T04:01:05.148Z,24.40
2022-12-11T04:03:33.165Z,23.33
2022-12-11T04:06:01.209Z,22.87
2022-12-11T04:08:29.251Z,22.50
2022-12-11T04:11:11.248Z,24.77
2022-12-11T04:13:40.731Z,21.83
2022-12-11T04:16:09.305Z,22.10
2022-12-11T04:18:54.760Z,25.10
2022-12-11T04:21:40.152Z,22.97
2022-12-11T04:24:17.428Z,22.93
2022-12-11T04:26:46.466Z,24.43
2022-12-11T04:29:14.992Z,25.73
2022-12-11T04:31:45.748Z,24.93
2022-12-11T04:34:13.771Z,24.43
2022-12-11T04:36:41.776Z,23.63
2022-12-11T04:39:09.856Z,23.30
2022-12-11T04:41:38.977Z,25.37
2022-12-11T04:44:06.992Z,24.17
2022-12-11T04:46:35.305Z,21.40
2022-12-11T04:49:04.747Z,24.43
2022-12-11T04:51:32.758Z,25.37
2022-12-11T04:54:00.760Z,25.03
2022-12-11T04:56:28.814Z,25.67
2022-12-11T04:58:56.915Z,25.93
2022-12-11T05:01:25.122Z,25.10
2022-12-11T05:03:53.206Z,23.30
2022-12-11T05:06:22.610Z,24.10
2022-12-11T05:08:50.604Z,25.70
2022-12-11T05:11:18.829Z,24.73
2022-12-11T05:13:47.272Z,24.73
2022-12-11T05:16:17.433Z,24.90
2022-12-11T05:18:45.630Z,24.57
2022-12-11T05:21:15.696Z,26.07
2022-12-11T05:23:45.090Z,23.83
2022-12-11T05:26:16.718Z,22.87
2022-12-11T05:28:45.876Z,25.97
2022-12-11T05:31:16.109Z,24.90
2022-12-11T05:33:44.296Z,27.13
2022-12-11T05:36:17.204Z,26.77
2022-12-11T05:38:46.887Z,26.20
2022-12-11T05:41:18.168Z,28.13
2022-12-11T05:43:46.437Z,26.43
2022-12-11T05:46:16.727Z,25.73
2022-12-11T05:48:47.091Z,23.83
2022-12-11T05:51:16.045Z,28.43
2022-12-11T05:53:46.711Z,26.87
2022-12-11T05:56:16.471Z,26.93
2022-12-11T05:58:45.664Z,29.23
2022-12-11T06:01:16.520Z,27.90
2022-12-11T06:03:44.699Z,27.73
2022-12-11T06:06:13.339Z,27.70
2022-12-11T06:08:41.603Z,26.87
2022-12-11T06:11:12.458Z,26.33
2022-12-11T06:13:40.822Z,27.00
2022-12-11T06:16:10.299Z,26.83
2022-12-11T06:18:40.059Z,25.90
2022-12-11T06:21:15.587Z,27.37
2022-12-11T06:23:44.804Z,24.57
2022-12-11T06:26:15.597Z,25.57
2022-12-11T06:28:43.902Z,22.93
2022-12-11T06:31:12.313Z,23.83
2022-12-11T06:33:40.825Z,22.73
2022-12-11T06:36:11.463Z,21.13
2022-12-11T06:38:39.889Z,24.43
2022-12-11T06:41:09.404Z,26.73
2022-12-11T06:43:41.120Z,27.57
2022-12-11T06:46:11.394Z,23.70
2022-12-11T06:48:40.136Z,27.30
2022-12-11T06:51:09.028Z,23.00
2022-12-11T06:53:37.329Z,22.90
2022-12-11T06:56:06.667Z,25.37
2022-12-11T06:58:35.936Z,24.60
2022-12-11T07:01:06.430Z,23.40
2022-12-11T07:03:34.449Z,24.87
2022-12-11T07:06:03.219Z,21.67
2022-12-11T07:08:31.959Z,21.87
2022-12-11T07:11:04.670Z,22.60
2022-12-11T07:13:33.655Z,19.83
2022-12-11T07:16:01.983Z,21.80
2022-12-11T07:18:32.045Z,21.57
2022-12-11T07:21:01.127Z,18.13
2022-12-11T07:23:29.353Z,19.40
2022-12-11T07:25:57.915Z,19.90
2022-12-11T07:28:26.050Z,17.77
2022-12-11T07:30:54.058Z,20.43
2022-12-11T07:33:22.173Z,16.57
2022-12-11T07:35:51.495Z,19.83
2022-12-11T07:38:19.604Z,18.13
2022-12-11T07:40:47.642Z,18.07
2022-12-11T07:43:15.685Z,17.97
2022-12-11T07:45:43.782Z,15.70
2022-12-11T07:48:12.695Z,18.23
2022-12-11T07:50:40.778Z,18.00
2022-12-11T07:53:10.129Z,17.67
2022-12-11T07:55:38.206Z,16.47
2022-12-11T07:58:06.267Z,16.60
2022-12-11T08:00:34.379Z,17.90
2022-12-11T08:03:02.461Z,20.27
2022-12-11T08:05:30.502Z,13.10
2022-12-11T08:07:58.580Z,10.13
2022-12-11T08:10:28.784Z,11.17
2022-12-11T08:12:56.930Z,13.43
2022-12-11T08:15:25.022Z,12.40
2022-12-11T08:17:53.069Z,13.07
2022-12-11T08:20:21.131Z,17.27
2022-12-11T08:22:49.163Z,22.33
2022-12-11T08:25:17.363Z,20.47
2022-12-11T08:27:46.848Z,16.80
2022-12-11T08:30:15.179Z,13.47
2022-12-11T08:32:43.354Z,13.33
2022-12-11T08:35:11.779Z,14.47
2022-12-11T08:37:40.153Z,13.20
2022-12-11T08:40:10.740Z,12.10
2022-12-11T08:42:38.759Z,13.27
2022-12-11T08:45:09.895Z,12.97
2022-12-11T08:47:38.485Z,12.37
2022-12-11T08:50:07.523Z,11.37
2022-12-11T08:52:35.955Z,10.03
2022-12-11T08:55:04.251Z,11.47
2022-12-11T08:57:32.317Z,12.13
2022-12-11T09:00:00.345Z,11.40
2022-12-11T09:02:29.737Z,12.07
2022-12-11T09:04:57.828Z,12.57
2022-12-11T09:07:26.424Z,11.50
2022-12-11T09:09:55.753Z,11.87
2022-12-11T09:12:23.867Z,12.27
2022-12-11T09:14:52.201Z,11.20
2022-12-11T09:17:20.264Z,12.67
2022-12-11T09:19:49.653Z,12.33
2022-12-11T09:22:17.701Z,11.10
2022-12-11T09:24:46.227Z,11.77
2022-12-11T09:27:14.314Z,10.60
2022-12-11T09:29:42.425Z,11.13
2022-12-11T09:32:10.428Z,10.60
2022-12-11T09:34:38.479Z,10.97
2022-12-11T09:37:07.864Z,11.07
2022-12-11T09:39:35.942Z,10.03
2022-12-11T09:42:11.148Z,11.80
2022-12-11T09:44:43.219Z,11.53
2022-12-11T09:47:34.136Z,12.10
2022-12-11T09:50:11.517Z,14.17
2022-12-11T09:52:49.301Z,12.73
2022-12-11T09:55:20.607Z,11.27
2022-12-11T09:57:57.568Z,11.37
2022-12-11T10:00:29.831Z,12.70
2022-12-11T10:03:26.854Z,11.90
2022-12-11T10:06:04.746Z,11.90
2022-12-11T10:08:41.070Z,12.30
2022-12-11T10:11:25.791Z,11.53
2022-12-11T10:14:03.697Z,12.40
2022-12-11T10:16:37.808Z,11.53
2022-12-11T10:19:06.080Z,12.20
2022-12-11T10:21:41.713Z,13.90
2022-12-11T10:24:40.837Z,13.23
2022-12-11T10:27:19.129Z,11.90
2022-12-11T10:29:47.568Z,12.77
2022-12-11T10:32:25.065Z,11.57
2022-12-11T10:34:58.241Z,11.07
2022-12-11T10:37:26.379Z,10.17
2022-12-11T10:39:55.780Z,10.87
2022-12-11T10:42:24.381Z,10.40
2022-12-11T10:45:01.364Z,9.83
2022-12-11T10:47:29.983Z,9.50
2022-12-11T10:50:00.220Z,9.13
2022-12-11T10:52:31.534Z,9.80
2022-12-11T10:55:03.844Z,10.77
2022-12-11T10:57:34.975Z,10.23
2022-12-11T11:00:24.967Z,9.47
2022-12-11T11:02:53.248Z,11.40
2022-12-11T11:05:30.236Z,10.60
2022-12-11T11:08:05.733Z,10.80
2022-12-11T11:10:35.665Z,11.67
2022-12-11T11:13:04.245Z,12.47
2022-12-11T11:15:32.857Z,12.57
2022-12-11T11:18:17.644Z,10.93
2022-12-11T11:20:49.449Z,11.73
2022-12-11T11:23:19.728Z,10.07
2022-12-11T11:25:54.047Z,13.17
2022-12-11T11:28:25.278Z,13.80
2022-12-11T11:31:03.743Z,12.03
2022-12-11T11:33:34.004Z,11.70
2022-12-11T11:36:04.235Z,11.57
2022-12-11T11:38:36.770Z,12.27
2022-12-11T11:41:15.307Z,11.83
2022-12-11T11:43:46.860Z,11.80
2022-12-11T11:46:19.403Z,9.80
2022-12-11T11:48:55.148Z,10.30
2022-12-11T11:51:28.624Z,13.23
2022-12-11T11:53:59.922Z,11.43
2022-12-11T11:56:34.989Z,12.73
2022-12-11T11:59:09.144Z,11.87
2022-12-11T12:01:37.555Z,11.73
2022-12-11T12:04:06.180Z,10.43
2022-12-11T12:06:54.295Z,12.20
2022-12-11T12:09:35.072Z,10.97
2022-12-11T12:12:16.246Z,13.17
2022-12-11T12:15:04.100Z,14.13
2022-12-11T12:17:40.099Z,11.93
2022-12-11T12:20:18.451Z,11.83
2022-12-11T12:23:19.715Z,14.97
2022-12-11T12:25:53.845Z,12.70
2022-12-11T12:28:34.775Z,14.40
2022-12-11T12:31:15.086Z,12.80
2022-12-11T12:33:54.392Z,13.50
2022-12-11T12:36:28.612Z,13.07
2022-12-11T12:39:02.387Z,12.83
2022-12-11T12:41:40.968Z,12.77
2022-12-11T12:44:16.807Z,12.80
2022-12-11T12:46:56.765Z,11.20
2022-12-11T12:49:40.714Z,12.10
2022-12-11T12:52:14.191Z,11.67
2022-12-11T12:55:05.437Z,13.27
2022-12-11T12:57:35.114Z,11.37
2022-12-11T13:00:11.083Z,11.73
2022-12-11T13:02:50.496Z,11.63
2022-12-11T13:05:24.165Z,11.07
2022-12-11T13:07:55.535Z,11.13
2022-12-11T13:10:28.588Z,11.43
2022-12-11T13:12:57.020Z,12.67
2022-12-11T13:15:36.836Z,13.40
2022-12-11T13:18:08.404Z,12.57
2022-12-11T13:20:50.959Z,11.90
2022-12-11T13:23:27.020Z,14.27
2022-12-11T13:25:57.234Z,15.60
2022-12-11T13:28:29.145Z,11.53
2022-12-11T13:31:04.988Z,10.70
2022-12-11T13:33:38.948Z,10.83
2022-12-11T13:36:31.130Z,9.53
2022-12-11T13:39:03.087Z,9.77
2022-12-11T13:41:34.062Z,10.30
2022-12-11T13:44:03.289Z,9.83
2022-12-11T13:46:36.395Z,10.73
2022-12-11T13:49:06.818Z,11.13
2022-12-11T13:51:37.883Z,11.07
2022-12-11T13:54:16.633Z,12.33
2022-12-11T13:56:59.654Z,12.47
2022-12-11T13:59:32.034Z,14.43
2022-12-11T14:02:14.177Z,13.57
2022-12-11T14:04:42.859Z,12.80
2022-12-11T14:07:12.297Z,12.93
2022-12-11T14:09:44.300Z,10.33
2022-12-11T14:12:18.610Z,13.03
2022-12-11T14:14:50.281Z,13.57
2022-12-11T14:17:26.261Z,13.27
2022-12-11T14:19:55.923Z,13.80
2022-12-11T14:22:26.276Z,9.70
2022-12-11T14:24:55.832Z,11.93
2022-12-11T14:27:24.938Z,11.23
2022-12-11T14:29:53.548Z,11.10
2022-12-11T14:32:32.102Z,10.03
2022-12-11T14:35:02.817Z,10.60
2022-12-11T14:37:31.372Z,12.53
2022-12-11T14:40:02.430Z,11.67
2022-12-11T14:42:33.440Z,17.07
2022-12-11T14:45:07.182Z,24.77
2022-12-11T14:47:42.344Z,24.07
2022-12-11T14:50:18.803Z,17.07
2022-12-11T14:52:49.088Z,15.20
2022-12-11T14:55:20.866Z,12.83
2022-12-11T14:57:51.277Z,13.20
2022-12-11T15:00:24.813Z,12.83
2022-12-11T15:03:02.227Z,12.23
2022-12-11T15:05:34.441Z,15.47
2022-12-11T15:08:24.229Z,16.53
2022-12-11T15:11:04.007Z,16.33
2022-12-11T15:13:33.075Z,14.90
2022-12-11T15:16:01.464Z,17.73
2022-12-11T15:18:35.175Z,19.30
2022-12-11T15:21:09.892Z,15.10
2022-12-11T15:23:50.609Z,21.23
2022-12-11T15:26:19.325Z,15.83
2022-12-11T15:28:47.581Z,18.33
2022-12-11T15:31:25.987Z,15.70
2022-12-11T15:33:55.661Z,13.73
2022-12-11T15:36:27.115Z,15.63
2022-12-11T15:38:55.278Z,12.53
2022-12-11T15:41:24.599Z,14.90
2022-12-11T15:43:58.660Z,16.20
2022-12-11T15:46:27.450Z,15.57
2022-12-11T15:48:57.719Z,14.90
2022-12-11T15:51:27.386Z,13.50
2022-12-11T15:53:55.406Z,13.70
2022-12-11T15:56:23.567Z,13.37
2022-12-11T15:58:51.629Z,14.03
2022-12-11T16:01:19.756Z,12.73
2022-12-11T16:03:50.223Z,15.60
2022-12-11T16:06:19.592Z,13.93
2022-12-11T16:08:47.669Z,12.93
2022-12-11T16:11:16.114Z,12.53
2022-12-11T16:13:45.231Z,14.07
2022-12-11T16:16:13.311Z,13.67
2022-12-11T16:18:41.977Z,14.87
2022-12-11T16:21:09.976Z,14.40
2022-12-11T16:23:39.341Z,13.83
2022-12-11T16:26:09.597Z,12.80
2022-12-11T16:28:37.630Z,18.40
2022-12-11T16:31:10.426Z,17.60
2022-12-11T16:33:38.493Z,18.80
2022-12-11T16:36:14.655Z,18.97
2022-12-11T16:38:52.851Z,18.80
2022-12-11T16:41:22.644Z,19.07
2022-12-11T16:43:50.662Z,18.60
2022-12-11T16:46:19.588Z,19.13
2022-12-11T16:48:47.856Z,18.27
2022-12-11T16:51:16.720Z,16.70
2022-12-11T16:53:46.402Z,14.67
2022-12-11T16:56:14.572Z,13.20
2022-12-11T16:58:42.613Z,11.57
2022-12-11T17:01:12.724Z,12.37
2022-12-11T17:03:41.845Z,12.20
2022-12-11T17:06:11.300Z,12.07
2022-12-11T17:08:39.823Z,11.73
2022-12-11T17:11:11.287Z,8.90
2022-12-11T17:13:39.756Z,8.03
2022-12-11T17:16:09.564Z,9.50
2022-12-11T17:18:38.377Z,8.73
2022-12-11T17:21:07.806Z,8.47
2022-12-11T17:23:35.914Z,8.67
2022-12-11T17:26:04.656Z,7.97
2022-12-11T17:28:34.017Z,7.23
2022-12-11T17:31:05.684Z,7.40
2022-12-11T17:33:33.777Z,7.93
2022-12-11T17:36:02.494Z,6.03
2022-12-11T17:38:30.563Z,8.47
2022-12-11T17:40:58.984Z,7.87
2022-12-11T17:43:27.256Z,8.43
2022-12-11T17:45:56.698Z,12.23
2022-12-11T17:48:24.800Z,13.50
2022-12-11T17:50:54.135Z,13.37
2022-12-11T17:53:23.748Z,12.93
2022-12-11T17:55:52.786Z,14.83
2022-12-11T17:58:22.805Z,13.60
2022-12-11T18:00:54.178Z,14.00
2022-12-11T18:03:23.667Z,14.70
2022-12-11T18:05:53.981Z,14.37
2022-12-11T18:08:25.892Z,14.43
2022-12-11T18:10:54.599Z,14.67
2022-12-11T18:13:22.887Z,15.73
2022-12-11T18:16:00.847Z,20.27
2022-12-11T18:18:30.331Z,21.30
2022-12-11T18:20:58.937Z,25.33
2022-12-11T18:23:27.112Z,23.83
2022-12-11T18:25:55.524Z,23.70
2022-12-11T18:28:23.720Z,23.27
2022-12-11T18:30:51.872Z,22.87
2022-12-11T18:33:19.958Z,21.77
2022-12-11T18:35:51.613Z,20.80
2022-12-11T18:38:19.636Z,20.90
2022-12-11T18:40:47.707Z,19.20
2022-12-11T18:43:15.750Z,20.13
2022-12-11T18:45:45.484Z,21.80
2022-12-11T18:48:13.803Z,17.57
2022-12-11T18:50:46.271Z,17.63
2022-12-11T18:53:16.364Z,18.23
2022-12-11T18:55:45.515Z,17.07
2022-12-11T18:58:15.548Z,18.77
2022-12-11T19:00:45.001Z,21.53
2022-12-11T19:03:14.225Z,21.83
2022-12-11T19:05:43.836Z,22.53
2022-12-11T19:08:13.813Z,23.67
2022-12-11T19:10:44.652Z,22.93
2022-12-11T19:13:13.113Z,15.60
2022-12-11T19:15:42.474Z,15.13
2022-12-11T19:18:11.814Z,17.17
2022-12-11T19:20:48.922Z,18.90
2022-12-11T19:23:18.077Z,18.87
2022-12-11T19:25:49.114Z,18.33
2022-12-11T19:28:18.100Z,23.67
2022-12-11T19:30:47.528Z,23.33
2022-12-11T19:33:16.687Z,28.23
2022-12-11T19:35:45.351Z,23.87
2022-12-11T19:38:13.826Z,23.27
2022-12-11T19:40:42.712Z,23.87
2022-12-11T19:43:12.254Z,22.33
2022-12-11T19:45:41.403Z,21.67
2022-12-11T19:48:09.491Z,23.93
2022-12-11T19:50:37.561Z,22.80
2022-12-11T19:53:05.602Z,23.23
2022-12-11T19:55:33.883Z,21.50
2022-12-11T19:58:01.913Z,19.83
2022-12-11T20:00:31.411Z,20.03
2022-12-11T20:02:59.654Z,18.93
2022-12-11T20:05:27.707Z,19.50
2022-12-11T20:07:59.486Z,19.53
2022-12-11T20:10:35.285Z,18.30
2022-12-11T20:13:03.320Z,19.93
2022-12-11T20:15:33.046Z,18.20
2022-12-11T20:18:02.278Z,16.57
2022-12-11T20:20:31.617Z,19.00
2022-12-11T20:23:00.823Z,17.43
2022-12-11T20:25:28.928Z,17.13
2022-12-11T20:27:57.876Z,18.20
2022-12-11T20:30:25.957Z,17.57
2022-12-11T20:32:55.380Z,17.23
2022-12-11T20:35:23.403Z,12.47
2022-12-11T20:37:51.468Z,11.67
2022-12-11T20:40:19.936Z,14.67
2022-12-11T20:42:47.979Z,15.27
2022-12-11T20:45:16.883Z,14.37
2022-12-11T20:47:45.269Z,16.13
2022-12-11T20:50:14.787Z,14.60
2022-12-11T20:52:42.852Z,16.00
2022-12-11T20:55:11.598Z,16.90
2022-12-11T20:57:44.895Z,15.07
2022-12-11T21:00:14.642Z,14.93
2022-12-11T21:02:42.834Z,16.20
2022-12-11T21:05:11.537Z,18.27
2022-12-11T21:07:41.140Z,18.67
2022-12-11T21:10:10.706Z,18.50
2022-12-11T21:12:39.281Z,16.10
2022-12-11T21:15:08.271Z,16.30
2022-12-11T21:17:36.591Z,19.90
2022-12-11T21:20:05.574Z,19.27
2022-12-11T21:22:33.598Z,20.30
2022-12-11T21:25:03.041Z,19.10
2022-12-11T21:27:32.128Z,19.10
2022-12-11T21:30:00.253Z,18.23
2022-12-11T21:32:29.874Z,18.73
2022-12-11T21:34:59.526Z,17.50
2022-12-11T21:37:27.618Z,17.03
2022-12-11T21:39:56.920Z,21.03
2022-12-11T21:42:27.562Z,19.50
2022-12-11T21:45:37.671Z,22.97
2022-12-11T21:47:43.785Z,20.13
2022-12-11T21:50:11.890Z,19.23
2022-12-11T21:52:40.836Z,17.40
2022-12-11T21:55:09.584Z,19.13
2022-12-11T21:57:39.349Z,18.00
2022-12-11T22:00:09.357Z,18.47
2022-12-11T22:02:41.254Z,16.67
2022-12-11T22:05:10.674Z,17.77
2022-12-11T22:07:38.931Z,16.70
2022-12-11T22:10:07.776Z,17.40
2022-12-11T22:12:35.926Z,15.97
2022-12-11T22:15:06.403Z,16.03
2022-12-11T22:17:34.469Z,15.40
2022-12-11T22:20:03.336Z,18.30
2022-12-11T22:22:31.812Z,17.50
2022-12-11T22:25:00.092Z,18.40
2022-12-11T22:27:28.164Z,18.23
2022-12-11T22:29:56.358Z,16.50
2022-12-11T22:32:27.372Z,16.77
2022-12-11T22:34:56.301Z,16.73
2022-12-11T22:37:24.559Z,15.90
2022-12-11T22:39:52.881Z,17.90
2022-12-11T22:42:21.176Z,17.00
2022-12-11T22:44:49.369Z,19.27
2022-12-11T22:47:17.468Z,15.60
2022-12-11T22:49:47.447Z,16.63
2022-12-11T22:52:15.649Z,17.60
2022-12-11T22:54:43.780Z,16.10
2022-12-11T22:57:11.838Z,18.50
2022-12-11T22:59:41.089Z,17.07
2022-12-11T23:02:09.273Z,17.70
2022-12-11T23:04:39.794Z,17.20
2022-12-11T23:07:09.269Z,18.67
2022-12-11T23:09:37.332Z,19.67
2022-12-11T23:12:06.089Z,18.83
2022-12-11T23:14:34.448Z,18.50
2022-12-11T23:17:02.511Z,18.00
2022-12-11T23:19:30.627Z,18.40
2022-12-11T23:21:58.845Z,19.33
2022-12-11T23:24:28.195Z,19.10
2022-12-11T23:26:56.233Z,17.93
2022-12-11T23:29:24.268Z,17.00
2022-12-11T23:31:52.276Z,17.33
2022-12-11T23:34:20.319Z,16.37
2022-12-11T23:36:48.393Z,17.57
2022-12-11T23:39:16.448Z,16.03
2022-12-11T23:41:45.800Z,18.13
2022-12-11T23:44:13.808Z,16.17
2022-12-11T23:46:42.587Z,16.63
2022-12-11T23:49:10.641Z,18.27
2022-12-11T23:51:38.702Z,15.27
2022-12-11T23:54:06.901Z,15.87
2022-12-11T23:56:35.012Z,17.87
2022-12-11T23:59:04.448Z,18.80
